Time;durP1;ratioP1;P1;durP2;ratioP2;P2;SDS_P1;SDS_P2;PMS_P1;PMS_P2;Temp;Humidity;BMP_temperature;BMP_pressure;BME280_temperature;BME280_humidity;BME280_pressure;Samples;Min_cycle;Max_cycle;Signal;HPM_P1;HPM_P2
2023/07/27 00:01:57;;;;;;;0.30;0.30;;;14.90;99.90;;;;;;4432451;32;20113;-62
2023/07/27 00:04:22;;;;;;;0.30;0.30;;;14.80;99.90;;;;;;4442332;32;20077;-64
2023/07/27 00:06:48;;;;;;;0.52;0.52;;;14.80;99.90;;;;;;4440600;32;20081;-62
2023/07/27 00:09:15;;;;;;;0.30;0.30;;;14.70;99.90;;;;;;4433027;32;20088;-61
2023/07/27 00:11:40;;;;;;;2.60;0.95;;;14.70;99.90;;;;;;4430455;32;20102;-63
2023/07/27 00:14:06;;;;;;;0.65;0.43;;;14.60;99.90;;;;;;4431346;32;20061;-61
2023/07/27 00:16:31;;;;;;;0.30;0.30;;;14.60;99.90;;;;;;4416391;32;20073;-62
2023/07/27 00:18:57;;;;;;;0.40;0.40;;;14.60;99.90;;;;;;4427427;32;20173;-61
2023/07/27 00:21:22;;;;;;;21.73;2.55;;;14.60;99.90;;;;;;4425275;32;20077;-62
2023/07/27 00:23:48;;;;;;;0.30;0.30;;;14.50;99.90;;;;;;4438553;32;20077;-63
2023/07/27 00:26:13;;;;;;;0.20;0.20;;;14.40;99.90;;;;;;4426984;32;20073;-62
2023/07/27 00:28:39;;;;;;;0.20;0.20;;;14.50;99.90;;;;;;4427019;32;20086;-61
2023/07/27 00:31:04;;;;;;;0.43;0.40;;;14.50;99.90;;;;;;4426488;32;20134;-63
2023/07/27 00:33:30;;;;;;;0.20;0.20;;;14.40;99.90;;;;;;4424983;32;20533;-63
2023/07/27 00:35:56;;;;;;;0.35;0.35;;;14.30;99.90;;;;;;4438128;32;20078;-62
2023/07/27 00:38:22;;;;;;;0.50;0.30;;;14.30;99.90;;;;;;4425074;32;20070;-62
2023/07/27 00:40:47;;;;;;;0.40;0.40;;;14.30;99.90;;;;;;4422221;32;20074;-61
2023/07/27 00:43:13;;;;;;;0.20;0.20;;;14.30;99.90;;;;;;4428573;32;20085;-63
2023/07/27 00:45:38;;;;;;;0.30;0.30;;;14.20;99.90;;;;;;4437678;32;20115;-63
2023/07/27 00:48:04;;;;;;;0.30;0.30;;;14.30;99.90;;;;;;4427621;32;20074;-61
2023/07/27 00:50:32;;;;;;;1.45;0.40;;;14.30;99.90;;;;;;4417091;32;20086;-63
2023/07/27 00:52:58;;;;;;;0.20;0.20;;;14.30;99.90;;;;;;4409745;32;20087;-64
2023/07/27 00:55:24;;;;;;;0.50;0.50;;;14.20;99.90;;;;;;4424430;32;20066;-64
2023/07/27 00:57:50;;;;;;;0.30;0.30;;;14.20;99.90;;;;;;4409943;32;20066;-63
2023/07/27 01:00:15;;;;;;;0.30;0.30;;;14.40;99.90;;;;;;4435447;32;20066;-61
2023/07/27 01:02:41;;;;;;;0.30;0.30;;;14.40;99.90;;;;;;4440802;32;20129;-63
2023/07/27 01:05:07;;;;;;;0.40;0.40;;;14.40;99.90;;;;;;4439770;32;20066;-62
2023/07/27 01:07:32;;;;;;;0.40;0.40;;;14.40;99.90;;;;;;4426282;32;20140;-63
2023/07/27 01:09:58;;;;;;;1.00;0.70;;;14.30;99.90;;;;;;4432730;32;20069;-63
2023/07/27 01:12:32;;;;;;;0.37;0.37;;;14.20;99.90;;;;;;4440007;32;20065;-63
2023/07/27 01:15:06;;;;;;;0.45;0.45;;;14.20;99.90;;;;;;4442101;32;20062;-64
2023/07/27 01:17:42;;;;;;;1.60;0.75;;;14.00;99.90;;;;;;4441499;32;20070;-63
2023/07/27 01:20:14;;;;;;;0.10;0.10;;;14.00;99.90;;;;;;4440057;32;20073;-63
2023/07/27 01:22:58;;;;;;;0.43;0.43;;;14.00;99.90;;;;;;4440292;32;20060;-62
2023/07/27 01:25:46;;;;;;;0.52;0.52;;;13.90;99.90;;;;;;4431498;32;20071;-62
2023/07/27 01:28:47;;;;;;;0.30;0.30;;;13.90;99.90;;;;;;4416534;32;20081;-62
2023/07/27 01:31:19;;;;;;;0.30;0.30;;;14.00;99.90;;;;;;4407911;32;20081;-63
2023/07/27 01:33:49;;;;;;;0.45;0.45;;;13.80;99.90;;;;;;4440557;32;20234;-63
2023/07/27 01:36:21;;;;;;;0.35;0.35;;;13.70;99.90;;;;;;4439085;32;20078;-63
2023/07/27 01:38:48;;;;;;;0.32;0.32;;;13.70;99.90;;;;;;4426967;32;20057;-62
2023/07/27 01:41:15;;;;;;;0.40;0.40;;;13.70;99.90;;;;;;4425429;32;20564;-63
2023/07/27 01:43:43;;;;;;;7.22;1.15;;;13.60;99.90;;;;;;4437958;32;20066;-64
2023/07/27 01:46:11;;;;;;;0.30;0.30;;;13.70;99.90;;;;;;4418004;32;20424;-62
2023/07/27 01:48:38;;;;;;;1.10;0.45;;;13.70;99.90;;;;;;4425065;32;20061;-64
2023/07/27 01:51:04;;;;;;;0.30;0.30;;;13.70;99.90;;;;;;4436324;32;20089;-62
2023/07/27 01:53:31;;;;;;;0.73;0.60;;;13.80;99.90;;;;;;4427218;32;20541;-63
2023/07/27 01:55:58;;;;;;;0.30;0.30;;;13.70;99.90;;;;;;4421952;32;20100;-63
2023/07/27 01:58:26;;;;;;;2.47;0.70;;;13.70;99.90;;;;;;4424379;32;20071;-63
2023/07/27 02:00:52;;;;;;;3.03;0.98;;;13.70;99.90;;;;;;4424284;32;20082;-63
2023/07/27 02:03:18;;;;;;;0.40;0.40;;;13.80;99.90;;;;;;4428053;32;20062;-63
2023/07/27 02:05:44;;;;;;;0.70;0.68;;;13.70;99.90;;;;;;4431307;32;20062;-64
2023/07/27 02:08:09;;;;;;;0.50;0.50;;;13.80;99.90;;;;;;4435266;32;20533;-63
2023/07/27 02:10:37;;;;;;;0.47;0.47;;;13.70;99.90;;;;;;4433156;32;20081;-63
2023/07/27 02:13:23;;;;;;;0.30;0.30;;;13.70;99.90;;;;;;4434602;32;20078;-63
2023/07/27 02:16:13;;;;;;;0.52;0.50;;;13.70;99.90;;;;;;4426195;32;20073;-63
2023/07/27 02:18:40;;;;;;;0.20;0.20;;;13.70;99.90;;;;;;4398809;32;20533;-63
2023/07/27 02:21:07;;;;;;;0.40;0.40;;;13.70;99.90;;;;;;4431816;32;20073;-62
2023/07/27 02:23:33;;;;;;;0.95;0.50;;;13.60;99.90;;;;;;4410660;32;20134;-62
2023/07/27 02:25:59;;;;;;;0.25;0.25;;;13.60;99.90;;;;;;4409709;32;20071;-63
2023/07/27 02:28:28;;;;;;;0.45;0.45;;;13.50;99.90;;;;;;4433873;32;20066;-62
2023/07/27 02:30:53;;;;;;;0.30;0.30;;;13.50;99.90;;;;;;4425931;32;20086;-63
2023/07/27 02:33:19;;;;;;;0.50;0.50;;;13.30;99.90;;;;;;4421468;32;20199;-63
2023/07/27 02:35:44;;;;;;;0.60;0.60;;;13.20;99.90;;;;;;4416370;32;20117;-63
2023/07/27 02:38:10;;;;;;;0.30;0.30;;;13.30;99.90;;;;;;4415774;32;20077;-62
2023/07/27 02:40:35;;;;;;;0.80;0.68;;;13.20;99.90;;;;;;4417303;32;20053;-63
2023/07/27 02:43:02;;;;;;;0.40;0.40;;;13.10;99.90;;;;;;4417920;32;20116;-63
2023/07/27 02:45:27;;;;;;;0.30;0.30;;;13.10;99.90;;;;;;4427785;32;20082;-63
2023/07/27 02:47:53;;;;;;;0.57;0.57;;;13.20;99.90;;;;;;4427432;32;20065;-63
2023/07/27 02:50:18;;;;;;;0.50;0.45;;;13.30;99.90;;;;;;4421383;32;20112;-63
2023/07/27 02:52:44;;;;;;;0.30;0.30;;;13.30;99.90;;;;;;4415499;32;20078;-63
2023/07/27 02:55:10;;;;;;;0.50;0.50;;;13.30;99.90;;;;;;4415017;32;20070;-63
2023/07/27 02:57:36;;;;;;;0.40;0.40;;;13.20;99.90;;;;;;4415053;32;20061;-63
2023/07/27 03:00:02;;;;;;;0.30;0.30;;;13.20;99.90;;;;;;4418588;32;20061;-63
2023/07/27 03:02:28;;;;;;;0.32;0.32;;;13.20;99.90;;;;;;4425454;32;20058;-63
2023/07/27 03:04:57;;;;;;;0.22;0.22;;;13.30;99.90;;;;;;4416030;32;20117;-63
2023/07/27 03:07:23;;;;;;;0.40;0.40;;;13.40;99.90;;;;;;4425713;32;20057;-63
2023/07/27 03:09:50;;;;;;;0.55;0.52;;;13.40;99.90;;;;;;4417908;32;20078;-63
2023/07/27 03:12:16;;;;;;;1.83;0.60;;;13.30;99.90;;;;;;4426111;32;20432;-63
2023/07/27 03:14:41;;;;;;;0.45;0.45;;;13.30;99.90;;;;;;4417992;32;20518;-63
2023/07/27 03:17:08;;;;;;;0.30;0.30;;;13.30;99.90;;;;;;4428519;32;20455;-63
2023/07/27 03:19:34;;;;;;;0.30;0.30;;;13.10;99.90;;;;;;4426756;32;20095;-63
2023/07/27 03:21:59;;;;;;;0.62;0.50;;;13.20;99.90;;;;;;4415938;32;20439;-63
2023/07/27 03:24:25;;;;;;;0.37;0.37;;;13.20;99.90;;;;;;4419851;32;20101;-63
2023/07/27 03:26:51;;;;;;;0.45;0.45;;;13.20;99.90;;;;;;4415990;32;20082;-62
2023/07/27 03:29:16;;;;;;;0.80;0.50;;;13.20;99.90;;;;;;4417794;32;20074;-63
2023/07/27 03:31:42;;;;;;;1.12;0.40;;;13.20;99.90;;;;;;4416474;32;20066;-63
2023/07/27 03:34:08;;;;;;;0.30;0.30;;;13.20;99.90;;;;;;4417092;32;20078;-62
2023/07/27 03:36:33;;;;;;;0.30;0.30;;;13.20;99.90;;;;;;4415418;32;20078;-63
2023/07/27 03:38:59;;;;;;;0.40;0.40;;;13.20;99.90;;;;;;4423663;32;20334;-63
2023/07/27 03:41:24;;;;;;;0.50;0.50;;;13.20;99.90;;;;;;4421547;32;20078;-63
2023/07/27 03:43:50;;;;;;;1.85;0.98;;;13.10;99.90;;;;;;4415949;32;20203;-63
2023/07/27 03:46:15;;;;;;;0.60;0.60;;;13.10;99.90;;;;;;4414743;32;20078;-63
2023/07/27 03:48:41;;;;;;;4.28;1.40;;;13.10;99.90;;;;;;4416237;32;20062;-63
2023/07/27 03:51:06;;;;;;;0.43;0.37;;;13.00;99.90;;;;;;4417437;32;20128;-63
2023/07/27 03:53:32;;;;;;;0.30;0.30;;;13.10;99.90;;;;;;4415497;32;20469;-63
2023/07/27 03:56:01;;;;;;;0.30;0.30;;;13.20;99.90;;;;;;4414615;32;20066;-63
2023/07/27 03:58:26;;;;;;;0.30;0.30;;;13.10;99.90;;;;;;4414805;32;20466;-62
2023/07/27 04:00:52;;;;;;;3.22;0.47;;;13.10;99.90;;;;;;4420915;32;20070;-62
2023/07/27 04:03:17;;;;;;;0.50;0.50;;;13.10;99.90;;;;;;4430347;32;20065;-63
2023/07/27 04:05:43;;;;;;;0.68;0.60;;;13.20;99.90;;;;;;4431550;32;20063;-63
2023/07/27 04:08:10;;;;;;;0.60;0.60;;;13.20;99.90;;;;;;4422606;32;20073;-63
2023/07/27 04:10:36;;;;;;;8.13;0.55;;;13.10;99.90;;;;;;4418511;32;20121;-63
2023/07/27 04:13:04;;;;;;;1.17;0.70;;;13.20;99.90;;;;;;4430502;32;20065;-62
2023/07/27 04:15:30;;;;;;;0.20;0.20;;;13.10;99.90;;;;;;4418868;32;20061;-63
2023/07/27 04:17:56;;;;;;;0.40;0.40;;;13.20;99.90;;;;;;4415176;32;20403;-63
2023/07/27 04:20:21;;;;;;;0.50;0.50;;;13.20;99.90;;;;;;4414269;32;20074;-62
2023/07/27 04:22:47;;;;;;;0.40;0.40;;;13.20;99.90;;;;;;4414281;32;20142;-62
2023/07/27 04:25:12;;;;;;;0.30;0.30;;;13.30;99.90;;;;;;4414873;32;20581;-63
2023/07/27 04:27:38;;;;;;;0.65;0.35;;;13.30;99.90;;;;;;4416887;32;20079;-63
2023/07/27 04:30:04;;;;;;;0.35;0.35;;;13.40;99.90;;;;;;4415750;32;20057;-61
2023/07/27 04:32:30;;;;;;;0.52;0.52;;;13.40;99.90;;;;;;4422695;32;20612;-63
2023/07/27 04:34:55;;;;;;;1.48;0.50;;;13.50;99.90;;;;;;4424913;32;20549;-63
2023/07/27 04:37:21;;;;;;;0.50;0.50;;;13.50;99.90;;;;;;4430125;32;20580;-63
2023/07/27 04:39:47;;;;;;;0.60;0.60;;;13.50;99.90;;;;;;4430241;32;20058;-63
2023/07/27 04:42:12;;;;;;;0.20;0.20;;;13.50;99.90;;;;;;4417150;32;20111;-62
2023/07/27 04:44:38;;;;;;;1.55;0.52;;;13.50;99.90;;;;;;4415426;32;20070;-63
2023/07/27 04:47:04;;;;;;;0.40;0.40;;;13.50;99.90;;;;;;4416274;32;20077;-63
2023/07/27 04:49:29;;;;;;;0.20;0.20;;;13.60;99.90;;;;;;4431436;32;20452;-63
2023/07/27 04:51:55;;;;;;;0.50;0.50;;;13.50;99.90;;;;;;4426376;32;20062;-63
2023/07/27 04:54:21;;;;;;;0.90;0.47;;;13.50;99.90;;;;;;4415541;32;20058;-63
2023/07/27 04:56:46;;;;;;;0.30;0.30;;;13.70;99.90;;;;;;4417172;32;20074;-63
2023/07/27 04:59:12;;;;;;;0.75;0.60;;;13.60;99.90;;;;;;4418185;32;20053;-62
2023/07/27 05:01:37;;;;;;;0.88;0.43;;;13.70;99.90;;;;;;4420780;32;20116;-63
2023/07/27 05:04:03;;;;;;;0.37;0.37;;;13.70;99.90;;;;;;4415894;32;20066;-63
2023/07/27 05:06:29;;;;;;;0.30;0.30;;;13.70;99.90;;;;;;4415248;32;20046;-63
2023/07/27 05:08:54;;;;;;;0.55;0.55;;;13.80;99.90;;;;;;4430705;32;20073;-63
2023/07/27 05:11:20;;;;;;;0.30;0.30;;;13.80;99.90;;;;;;4425002;32;20073;-63
2023/07/27 05:13:45;;;;;;;0.45;0.45;;;13.90;99.90;;;;;;4418283;32;20082;-63
2023/07/27 05:16:11;;;;;;;0.35;0.35;;;13.90;99.90;;;;;;4426217;32;20542;-63
2023/07/27 05:18:36;;;;;;;0.45;0.40;;;14.00;99.90;;;;;;4431501;32;20114;-63
2023/07/27 05:21:02;;;;;;;0.55;0.47;;;14.00;99.90;;;;;;4426325;32;20124;-63
2023/07/27 05:23:28;;;;;;;1.40;0.80;;;14.00;99.90;;;;;;4415810;32;20083;-63
2023/07/27 05:25:53;;;;;;;0.40;0.40;;;14.10;99.90;;;;;;4417037;32;20093;-63
2023/07/27 05:28:19;;;;;;;0.62;0.62;;;14.20;99.90;;;;;;4416114;32;20057;-63
2023/07/27 05:30:44;;;;;;;2.37;1.27;;;14.30;99.90;;;;;;4415580;32;20466;-63
2023/07/27 05:33:10;;;;;;;0.28;0.28;;;14.40;99.90;;;;;;4415512;32;20066;-62
2023/07/27 05:35:36;;;;;;;2.17;0.47;;;14.50;99.90;;;;;;4415689;32;20066;-62
2023/07/27 05:38:01;;;;;;;0.50;0.50;;;14.60;99.90;;;;;;4425858;32;20173;-63
2023/07/27 05:40:27;;;;;;;0.30;0.30;;;14.60;99.90;;;;;;4423459;32;20062;-63
2023/07/27 05:42:52;;;;;;;0.22;0.22;;;14.70;99.90;;;;;;4419940;32;20062;-63
2023/07/27 05:45:17;;;;;;;0.28;0.28;;;14.80;99.90;;;;;;4417719;32;20070;-63
2023/07/27 05:47:43;;;;;;;0.30;0.30;;;15.00;99.90;;;;;;4417712;32;20123;-63
2023/07/27 05:50:09;;;;;;;0.50;0.50;;;15.20;99.90;;;;;;4403985;32;20548;-63
2023/07/27 05:52:35;;;;;;;0.25;0.25;;;15.30;99.90;;;;;;4420439;32;20058;-63
2023/07/27 05:55:00;;;;;;;0.28;0.28;;;15.30;99.90;;;;;;4419207;32;20113;-63
2023/07/27 05:57:26;;;;;;;0.68;0.55;;;15.40;99.90;;;;;;4432695;32;20057;-63
2023/07/27 05:59:51;;;;;;;0.32;0.32;;;15.50;99.90;;;;;;4432272;32;20061;-63
2023/07/27 06:02:17;;;;;;;0.28;0.28;;;15.50;99.90;;;;;;4420353;32;20572;-63
2023/07/27 06:04:43;;;;;;;0.30;0.30;;;15.70;99.90;;;;;;4417872;32;20067;-63
2023/07/27 06:07:08;;;;;;;0.68;0.68;;;15.80;99.90;;;;;;4433569;32;20053;-63
2023/07/27 06:09:36;;;;;;;1.37;0.82;;;15.90;99.90;;;;;;4433308;32;20081;-63
2023/07/27 06:12:09;;;;;;;0.68;0.45;;;15.90;99.90;;;;;;4431188;32;20074;-63
2023/07/27 06:14:35;;;;;;;0.30;0.30;;;15.90;99.90;;;;;;4419803;32;20124;-63
2023/07/27 06:17:00;;;;;;;0.30;0.30;;;15.90;99.90;;;;;;4423584;32;20069;-63
2023/07/27 06:19:26;;;;;;;0.40;0.40;;;15.90;99.90;;;;;;4417701;32;20066;-63
2023/07/27 06:21:51;;;;;;;0.40;0.40;;;16.00;99.90;;;;;;4432108;32;20592;-63
2023/07/27 06:24:17;;;;;;;0.30;0.30;;;16.10;99.90;;;;;;4422050;32;20066;-63
2023/07/27 06:26:42;;;;;;;2.97;0.60;;;16.20;99.90;;;;;;4430184;32;20066;-62
2023/07/27 06:29:08;;;;;;;1.70;0.35;;;16.20;99.90;;;;;;4433183;32;20068;-63
2023/07/27 06:31:33;;;;;;;11.60;0.50;;;16.30;99.90;;;;;;4422852;32;20070;-64
2023/07/27 06:33:59;;;;;;;0.43;0.43;;;16.40;99.90;;;;;;4422513;32;20065;-63
2023/07/27 06:36:24;;;;;;;1.23;0.52;;;16.50;99.90;;;;;;4418738;32;20142;-63
2023/07/27 06:38:49;;;;;;;0.30;0.30;;;16.50;99.90;;;;;;4417240;32;20304;-63
2023/07/27 06:41:15;;;;;;;1.40;0.65;;;16.40;99.90;;;;;;4422324;32;20057;-63
2023/07/27 06:43:40;;;;;;;0.50;0.50;;;16.50;99.90;;;;;;4417327;32;20148;-64
2023/07/27 06:46:06;;;;;;;0.30;0.30;;;16.50;99.90;;;;;;4415162;32;20183;-63
2023/07/27 06:48:31;;;;;;;1.27;0.40;;;16.60;99.90;;;;;;4431057;32;20065;-63
2023/07/27 06:50:57;;;;;;;0.30;0.30;;;16.60;99.90;;;;;;4431375;32;20074;-62
2023/07/27 06:53:22;;;;;;;0.30;0.30;;;16.60;99.90;;;;;;4426926;32;20077;-63
2023/07/27 06:55:48;;;;;;;0.40;0.40;;;16.60;99.90;;;;;;4417491;32;20069;-63
2023/07/27 06:58:13;;;;;;;8.27;1.90;;;16.70;99.90;;;;;;4416807;32;20062;-62
2023/07/27 07:00:39;;;;;;;1.10;0.28;;;16.70;99.90;;;;;;4416594;32;20066;-63
2023/07/27 07:03:04;;;;;;;0.30;0.30;;;16.80;99.90;;;;;;4422756;32;20116;-63
2023/07/27 07:05:30;;;;;;;0.50;0.50;;;16.80;99.90;;;;;;4432977;32;20127;-63
2023/07/27 07:07:55;;;;;;;0.20;0.20;;;16.70;99.90;;;;;;4420348;32;20069;-63
2023/07/27 07:10:21;;;;;;;0.35;0.35;;;16.80;99.90;;;;;;4418696;32;20170;-62
2023/07/27 07:12:47;;;;;;;0.35;0.35;;;16.80;99.90;;;;;;4417985;32;20074;-63
2023/07/27 07:15:12;;;;;;;0.30;0.30;;;16.90;99.90;;;;;;4419362;32;20057;-63
2023/07/27 07:17:38;;;;;;;0.25;0.25;;;17.00;99.90;;;;;;4421670;32;20069;-63
2023/07/27 07:20:08;;;;;;;0.50;0.50;;;17.00;99.90;;;;;;4417642;32;20073;-63
2023/07/27 07:22:34;;;;;;;0.20;0.20;;;17.20;99.90;;;;;;4417730;32;20074;-63
2023/07/27 07:25:00;;;;;;;0.30;0.30;;;17.30;99.90;;;;;;4417240;32;20537;-63
2023/07/27 07:27:25;;;;;;;0.50;0.50;;;17.40;99.90;;;;;;4414414;32;20074;-63
2023/07/27 07:29:51;;;;;;;0.32;0.32;;;17.50;99.90;;;;;;4428403;32;20069;-63
2023/07/27 07:32:17;;;;;;;0.20;0.20;;;17.60;99.90;;;;;;4418880;32;20069;-63
2023/07/27 07:34:42;;;;;;;0.37;0.37;;;17.70;99.90;;;;;;4426211;32;20093;-63
2023/07/27 07:37:07;;;;;;;0.93;0.40;;;17.80;99.90;;;;;;4415403;32;20065;-63
2023/07/27 07:39:33;;;;;;;1.15;0.50;;;17.80;99.90;;;;;;4418393;32;20121;-63
2023/07/27 07:42:00;;;;;;;0.52;0.40;;;17.70;99.90;;;;;;4421160;32;20112;-64
2023/07/27 07:44:25;;;;;;;0.30;0.30;;;17.80;99.90;;;;;;4431483;32;20077;-63
2023/07/27 07:46:51;;;;;;;0.35;0.35;;;17.80;99.90;;;;;;4420934;32;20058;-63
2023/07/27 07:49:16;;;;;;;0.37;0.37;;;17.80;99.90;;;;;;4421313;32;20069;-63
2023/07/27 07:51:42;;;;;;;0.40;0.40;;;17.80;99.90;;;;;;4419857;32;20073;-62
2023/07/27 07:54:09;;;;;;;0.40;0.40;;;17.80;99.90;;;;;;4417572;32;20061;-65
2023/07/27 07:56:35;;;;;;;0.95;0.57;;;17.60;99.90;;;;;;4417345;32;20079;-62
2023/07/27 07:59:01;;;;;;;0.40;0.40;;;17.60;99.90;;;;;;4425458;32;20114;-62
2023/07/27 08:01:26;;;;;;;0.30;0.30;;;17.60;99.90;;;;;;4417690;32;20510;-64
2023/07/27 08:03:52;;;;;;;0.30;0.30;;;17.60;99.90;;;;;;4417692;32;20086;-63
2023/07/27 08:06:18;;;;;;;0.40;0.40;;;17.60;99.90;;;;;;4423228;32;20509;-63
2023/07/27 08:08:44;;;;;;;0.85;0.70;;;17.60;99.90;;;;;;4433401;32;20402;-64
2023/07/27 08:11:09;;;;;;;0.47;0.47;;;17.60;99.90;;;;;;4427467;32;20112;-63
2023/07/27 08:13:35;;;;;;;0.25;0.25;;;17.60;99.90;;;;;;4426290;32;20086;-63
2023/07/27 08:16:03;;;;;;;0.40;0.40;;;17.60;99.90;;;;;;4421041;32;20062;-63
2023/07/27 08:18:29;;;;;;;0.40;0.40;;;17.60;99.90;;;;;;4430978;32;20065;-64
2023/07/27 08:21:00;;;;;;;0.52;0.52;;;17.60;99.90;;;;;;4420805;32;20077;-63
2023/07/27 08:23:26;;;;;;;0.35;0.35;;;17.60;99.90;;;;;;4421320;32;20116;-63
2023/07/27 08:25:53;;;;;;;0.40;0.40;;;17.70;99.90;;;;;;4412601;32;20142;-64
2023/07/27 08:28:19;;;;;;;0.30;0.30;;;17.70;99.90;;;;;;4415689;32;20454;-63
2023/07/27 08:30:45;;;;;;;0.60;0.60;;;17.50;99.90;;;;;;4428561;32;20061;-63
2023/07/27 08:33:12;;;;;;;0.30;0.30;;;17.50;99.90;;;;;;4423988;32;20371;-64
2023/07/27 08:35:38;;;;;;;0.52;0.52;;;17.50;99.90;;;;;;4426598;32;20117;-62
2023/07/27 08:38:04;;;;;;;0.37;0.37;;;17.30;99.90;;;;;;4417698;32;20070;-63
2023/07/27 08:40:29;;;;;;;0.30;0.30;;;17.40;99.90;;;;;;4417134;32;20061;-63
2023/07/27 08:42:55;;;;;;;17.35;0.90;;;17.50;99.90;;;;;;4430141;32;20086;-64
2023/07/27 08:45:21;;;;;;;0.55;0.50;;;17.50;99.90;;;;;;4418598;32;20094;-62
2023/07/27 08:47:48;;;;;;;0.30;0.30;;;17.50;99.90;;;;;;4425414;32;20070;-63
2023/07/27 08:50:15;;;;;;;0.35;0.35;;;17.50;99.90;;;;;;4424424;32;20065;-63
2023/07/27 08:52:41;;;;;;;0.30;0.30;;;17.60;99.90;;;;;;4423455;32;20062;-62
2023/07/27 08:55:07;;;;;;;0.40;0.40;;;17.60;99.90;;;;;;4423863;32;20071;-62
2023/07/27 08:57:33;;;;;;;0.75;0.65;;;17.60;99.90;;;;;;4429187;32;20077;-63
2023/07/27 08:59:58;;;;;;;0.40;0.40;;;17.70;99.90;;;;;;4420866;32;20093;-63
2023/07/27 09:02:23;;;;;;;0.25;0.25;;;17.90;99.90;;;;;;4424631;32;20624;-64
2023/07/27 09:04:49;;;;;;;0.30;0.30;;;17.90;99.90;;;;;;4429177;32;20070;-63
2023/07/27 09:07:14;;;;;;;0.43;0.43;;;17.90;99.90;;;;;;4434897;32;20098;-63
2023/07/27 09:09:40;;;;;;;0.47;0.47;;;17.90;99.90;;;;;;4437054;32;20075;-63
2023/07/27 09:12:07;;;;;;;0.30;0.30;;;17.90;99.90;;;;;;4428408;32;20550;-61
2023/07/27 09:14:36;;;;;;;0.77;0.60;;;17.80;99.90;;;;;;4426951;32;20565;-62
2023/07/27 09:17:02;;;;;;;0.52;0.52;;;17.80;99.90;;;;;;4434375;32;20091;-63
2023/07/27 09:19:32;;;;;;;0.37;0.37;;;17.90;99.90;;;;;;4441836;32;20057;-62
2023/07/27 09:21:57;;;;;;;0.50;0.50;;;17.90;99.90;;;;;;4429437;32;20062;-62
2023/07/27 09:24:23;;;;;;;0.40;0.40;;;17.90;99.90;;;;;;4418854;32;20075;-64
2023/07/27 09:26:52;;;;;;;0.30;0.30;;;18.00;99.90;;;;;;4423826;32;20120;-63
2023/07/27 09:29:20;;;;;;;0.50;0.50;;;18.00;99.90;;;;;;4426026;32;20074;-65
2023/07/27 09:31:49;;;;;;;0.40;0.40;;;18.00;99.90;;;;;;4424703;32;20081;-62
2023/07/27 09:34:16;;;;;;;0.40;0.40;;;17.90;99.90;;;;;;4421006;32;20118;-63
2023/07/27 09:36:42;;;;;;;0.52;0.52;;;17.80;99.90;;;;;;4424089;32;20160;-63
2023/07/27 09:39:08;;;;;;;0.37;0.37;;;17.90;99.90;;;;;;4424718;32;20061;-63
2023/07/27 09:41:34;;;;;;;0.62;0.40;;;17.90;99.90;;;;;;4420607;32;20108;-63
2023/07/27 09:43:59;;;;;;;1.00;0.60;;;17.90;99.90;;;;;;4426848;32;20061;-62
2023/07/27 09:46:25;;;;;;;0.30;0.30;;;17.90;99.90;;;;;;4442302;32;20065;-62
2023/07/27 09:48:51;;;;;;;0.40;0.40;;;18.00;99.90;;;;;;4429279;32;20066;-63
2023/07/27 09:51:18;;;;;;;0.32;0.32;;;18.00;99.90;;;;;;4424214;32;20121;-62
2023/07/27 09:53:44;;;;;;;0.40;0.40;;;17.90;99.90;;;;;;4422598;32;20473;-63
2023/07/27 09:56:11;;;;;;;0.30;0.30;;;18.00;99.90;;;;;;4422364;32;20078;-63
2023/07/27 09:58:39;;;;;;;0.40;0.40;;;18.10;99.90;;;;;;4429312;32;20058;-62
2023/07/27 10:01:04;;;;;;;0.65;0.65;;;18.20;99.90;;;;;;4430137;32;20073;-62
2023/07/27 10:03:30;;;;;;;0.40;0.40;;;18.30;99.90;;;;;;4426528;32;20074;-62
2023/07/27 10:05:56;;;;;;;0.65;0.60;;;18.40;99.90;;;;;;4424313;32;20070;-61
2023/07/27 10:08:22;;;;;;;0.60;0.50;;;18.60;99.90;;;;;;4435106;32;20065;-62
2023/07/27 10:10:57;;;;;;;2.58;0.93;;;18.70;99.90;;;;;;4423378;32;20069;-61
2023/07/27 10:13:25;;;;;;;1.75;0.95;;;18.80;99.90;;;;;;4424752;32;20109;-62
2023/07/27 10:15:54;;;;;;;0.35;0.35;;;18.90;99.90;;;;;;4438316;32;20074;-61
2023/07/27 10:18:23;;;;;;;0.40;0.40;;;19.00;99.90;;;;;;4440341;32;20086;-64
2023/07/27 10:20:50;;;;;;;0.35;0.35;;;19.10;99.90;;;;;;4438382;32;20599;-62
2023/07/27 10:23:20;;;;;;;0.40;0.40;;;19.20;99.90;;;;;;4440303;32;20108;-63
2023/07/27 10:26:01;;;;;;;8.52;0.50;;;19.20;99.90;;;;;;4433098;32;20082;-62
2023/07/27 10:28:40;;;;;;;2.35;1.20;;;19.20;99.90;;;;;;4428040;32;20094;-63
2023/07/27 10:31:24;;;;;;;4.70;0.35;;;19.20;99.90;;;;;;4428896;32;20050;-61
2023/07/27 10:34:11;;;;;;;0.40;0.40;;;19.10;99.90;;;;;;4414120;32;20070;-61
2023/07/27 10:36:58;;;;;;;10.85;0.70;;;19.10;99.90;;;;;;4426065;32;20077;-62
2023/07/27 10:39:28;;;;;;;0.20;0.20;;;19.20;99.90;;;;;;4426035;32;20545;-62
2023/07/27 10:42:14;;;;;;;0.30;0.30;;;19.20;99.90;;;;;;4409927;32;20076;-61
2023/07/27 10:44:42;;;;;;;0.30;0.30;;;19.20;99.90;;;;;;4423144;32;20061;-62
2023/07/27 10:47:09;;;;;;;0.40;0.40;;;19.30;99.90;;;;;;4437940;32;20073;-62
2023/07/27 10:49:45;;;;;;;0.45;0.45;;;19.30;99.90;;;;;;4440660;32;20058;-62
2023/07/27 10:52:14;;;;;;;0.40;0.40;;;19.30;99.90;;;;;;4439450;32;20061;-62
2023/07/27 10:54:40;;;;;;;7.80;0.50;;;19.20;99.90;;;;;;4434887;32;20501;-64
2023/07/27 10:57:09;;;;;;;0.30;0.30;;;19.20;99.90;;;;;;4434905;32;20082;-62
2023/07/27 10:59:37;;;;;;;1.48;0.65;;;19.30;99.90;;;;;;4429091;32;20546;-63
2023/07/27 11:02:08;;;;;;;0.40;0.40;;;19.40;99.90;;;;;;4437255;32;20085;-64
2023/07/27 11:04:34;;;;;;;0.77;0.40;;;19.30;99.90;;;;;;4440790;32;20042;-63
2023/07/27 11:07:01;;;;;;;3.42;1.08;;;19.30;99.90;;;;;;4433189;32;20421;-64
2023/07/27 11:09:26;;;;;;;0.30;0.30;;;19.30;99.90;;;;;;4436063;32;20042;-63
2023/07/27 11:12:00;;;;;;;0.30;0.30;;;19.30;99.90;;;;;;4433415;32;20116;-64
2023/07/27 11:14:26;;;;;;;0.43;0.43;;;19.20;99.90;;;;;;4430339;32;20081;-63
2023/07/27 11:16:52;;;;;;;0.30;0.30;;;19.20;99.90;;;;;;4437595;32;20070;-63
2023/07/27 11:19:18;;;;;;;0.57;0.43;;;19.20;99.90;;;;;;4425882;32;20055;-64
2023/07/27 11:21:43;;;;;;;0.73;0.50;;;19.30;99.90;;;;;;4430485;32;20078;-63
2023/07/27 11:24:09;;;;;;;0.35;0.35;;;19.30;99.90;;;;;;4433995;32;20078;-63
2023/07/27 11:26:36;;;;;;;0.40;0.40;;;19.30;99.90;;;;;;4432072;32;20073;-64
2023/07/27 11:29:02;;;;;;;0.32;0.32;;;19.30;99.90;;;;;;4425978;32;20094;-63
2023/07/27 11:31:28;;;;;;;0.50;0.50;;;19.20;99.90;;;;;;4411572;32;20070;-65
2023/07/27 11:33:59;;;;;;;0.60;0.60;;;19.10;99.90;;;;;;4428714;32;20104;-62
2023/07/27 11:36:28;;;;;;;0.30;0.30;;;19.20;99.90;;;;;;4423412;32;20074;-63
2023/07/27 11:38:55;;;;;;;0.40;0.40;;;19.10;99.90;;;;;;4435965;32;20066;-63
2023/07/27 11:41:21;;;;;;;0.45;0.37;;;19.20;99.90;;;;;;4439998;32;20130;-62
2023/07/27 11:43:51;;;;;;;0.65;0.60;;;19.20;99.90;;;;;;4436459;32;20069;-63
2023/07/27 11:46:16;;;;;;;0.62;0.60;;;19.30;99.90;;;;;;4422155;32;89811;-63
2023/07/27 11:48:42;;;;;;;0.37;0.37;;;19.30;99.90;;;;;;4423962;32;20062;-63
2023/07/27 11:51:07;;;;;;;0.50;0.50;;;19.20;99.90;;;;;;4424076;32;20054;-63
2023/07/27 11:53:33;;;;;;;0.50;0.50;;;19.20;99.90;;;;;;4431058;32;20128;-63
2023/07/27 11:55:58;;;;;;;0.40;0.40;;;19.20;99.90;;;;;;4414151;32;20066;-63
2023/07/27 11:58:26;;;;;;;0.20;0.20;;;19.20;99.90;;;;;;4423964;32;20074;-63
2023/07/27 12:00:54;;;;;;;0.43;0.43;;;19.20;99.90;;;;;;4423527;32;20069;-63
2023/07/27 12:03:21;;;;;;;0.40;0.40;;;19.30;99.90;;;;;;4425107;32;20073;-63
2023/07/27 12:05:47;;;;;;;0.50;0.50;;;19.30;99.90;;;;;;4432482;32;20116;-63
2023/07/27 12:08:17;;;;;;;0.40;0.40;;;19.40;99.90;;;;;;4433256;32;20066;-63
2023/07/27 12:10:51;;;;;;;0.70;0.60;;;19.40;99.90;;;;;;4421572;32;20099;-61
2023/07/27 12:13:21;;;;;;;0.22;0.22;;;19.40;99.90;;;;;;4425093;32;20061;-63
2023/07/27 12:15:57;;;;;;;1.08;0.47;;;19.40;99.90;;;;;;4429824;32;20521;-64
2023/07/27 12:18:26;;;;;;;0.30;0.30;;;19.40;99.90;;;;;;4424841;32;20120;-64
2023/07/27 12:20:52;;;;;;;0.75;0.45;;;19.50;99.90;;;;;;4425204;32;20078;-64
2023/07/27 12:23:18;;;;;;;0.88;0.85;;;19.40;99.90;;;;;;4423557;32;20066;-63
2023/07/27 12:25:43;;;;;;;0.30;0.30;;;19.50;99.90;;;;;;4428284;32;20129;-64
2023/07/27 12:28:09;;;;;;;0.70;0.70;;;19.60;99.90;;;;;;4423632;32;20078;-63
2023/07/27 12:30:34;;;;;;;0.37;0.37;;;19.70;99.90;;;;;;4435534;32;20043;-63
2023/07/27 12:33:00;;;;;;;0.20;0.20;;;19.70;99.90;;;;;;4427027;32;20061;-63
2023/07/27 12:35:27;;;;;;;0.37;0.37;;;19.60;99.90;;;;;;4424829;32;20182;-63
2023/07/27 12:37:55;;;;;;;0.57;0.57;;;19.60;99.90;;;;;;4436939;32;20081;-64
2023/07/27 12:40:21;;;;;;;0.45;0.45;;;19.60;99.90;;;;;;4443365;32;20114;-64
2023/07/27 12:42:47;;;;;;;0.50;0.50;;;19.60;99.90;;;;;;4431058;32;20061;-64
2023/07/27 12:45:12;;;;;;;0.28;0.28;;;19.60;99.90;;;;;;4424732;32;20102;-62